sensor_id;sensor_type;location;lat;lon;timestamp;pressure;altitude;pressure_sealevel;temperature;humidity
10460;BME280;54412;51.206;6.888;2022-08-14T00:00:47;100526.03;;;26.18;39.34
10460;BME280;54412;51.206;6.888;2022-08-14T00:03:19;100524.13;;;26.04;39.72
10460;BME280;54412;51.206;6.888;2022-08-14T00:05:46;100517.78;;;26.19;39.21
10460;BME280;54412;51.206;6.888;2022-08-14T00:08:12;100519.03;;;26.01;39.92
10460;BME280;54412;51.206;6.888;2022-08-14T00:10:37;100516.97;;;26.11;39.72
10460;BME280;54412;51.206;6.888;2022-08-14T00:13:03;100511.16;;;26.22;39.38
10460;BME280;54412;51.206;6.888;2022-08-14T00:15:34;100514.72;;;25.92;40.20
10460;BME280;54412;51.206;6.888;2022-08-14T00:18:00;100506.03;;;25.96;40.32
10460;BME280;54412;51.206;6.888;2022-08-14T00:20:31;100501.97;;;26.00;40.23
10460;BME280;54412;51.206;6.888;2022-08-14T00:22:59;100504.88;;;25.99;40.54
10460;BME280;54412;51.206;6.888;2022-08-14T00:25:26;100511.91;;;25.77;40.81
10460;BME280;54412;51.206;6.888;2022-08-14T00:27:53;100510.00;;;25.85;40.88
10460;BME280;54412;51.206;6.888;2022-08-14T00:30:19;100503.78;;;25.85;40.79
10460;BME280;54412;51.206;6.888;2022-08-14T00:32:45;100495.13;;;25.90;41.00
10460;BME280;54412;51.206;6.888;2022-08-14T00:35:11;100487.50;;;25.93;40.92
10460;BME280;54412;51.206;6.888;2022-08-14T00:37:41;100487.50;;;25.93;40.92
10460;BME280;54412;51.206;6.888;2022-08-14T00:40:10;100483.47;;;25.89;41.09
10460;BME280;54412;51.206;6.888;2022-08-14T00:42:36;100492.22;;;25.60;41.89
10460;BME280;54412;51.206;6.888;2022-08-14T00:45:03;100481.41;;;25.68;41.72
10460;BME280;54412;51.206;6.888;2022-08-14T00:47:30;100484.00;;;25.54;42.14
10460;BME280;54412;51.206;6.888;2022-08-14T00:49:55;100471.88;;;25.50;42.30
10460;BME280;54412;51.206;6.888;2022-08-14T00:52:23;100465.88;;;25.70;41.86
10460;BME280;54412;51.206;6.888;2022-08-14T00:54:51;100472.16;;;25.63;42.22
10460;BME280;54412;51.206;6.888;2022-08-14T00:57:27;100474.00;;;25.62;42.12
10460;BME280;54412;51.206;6.888;2022-08-14T00:59:53;100476.28;;;25.43;42.68
10460;BME280;54412;51.206;6.888;2022-08-14T01:02:20;100469.84;;;25.44;42.66
10460;BME280;54412;51.206;6.888;2022-08-14T01:04:52;100462.50;;;25.68;42.32
10460;BME280;54412;51.206;6.888;2022-08-14T01:07:20;100459.59;;;25.70;42.33
10460;BME280;54412;51.206;6.888;2022-08-14T01:09:54;100456.63;;;25.57;42.58
10460;BME280;54412;51.206;6.888;2022-08-14T01:12:21;100445.81;;;25.65;42.45
10460;BME280;54412;51.206;6.888;2022-08-14T01:14:48;100446.47;;;25.67;42.20
10460;BME280;54412;51.206;6.888;2022-08-14T01:17:18;100443.34;;;25.78;42.40
10460;BME280;54412;51.206;6.888;2022-08-14T01:19:44;100438.38;;;25.67;42.71
10460;BME280;54412;51.206;6.888;2022-08-14T01:22:28;100435.22;;;25.78;42.38
10460;BME280;54412;51.206;6.888;2022-08-14T01:24:54;100435.88;;;25.57;43.20
10460;BME280;54412;51.206;6.888;2022-08-14T01:27:23;100435.41;;;25.54;43.32
10460;BME280;54412;51.206;6.888;2022-08-14T01:29:54;100432.22;;;25.42;43.38
10460;BME280;54412;51.206;6.888;2022-08-14T01:32:21;100433.13;;;25.65;43.09
10460;BME280;54412;51.206;6.888;2022-08-14T01:34:53;100416.59;;;25.60;43.29
10460;BME280;54412;51.206;6.888;2022-08-14T01:37:21;100421.09;;;25.76;43.07
10460;BME280;54412;51.206;6.888;2022-08-14T01:39:50;100412.97;;;25.76;43.24
10460;BME280;54412;51.206;6.888;2022-08-14T01:42:18;100404.84;;;25.53;43.71
10460;BME280;54412;51.206;6.888;2022-08-14T01:44:46;100403.19;;;25.75;43.21
10460;BME280;54412;51.206;6.888;2022-08-14T01:47:15;100396.69;;;25.61;43.75
10460;BME280;54412;51.206;6.888;2022-08-14T01:49:44;100397.19;;;25.65;43.60
10460;BME280;54412;51.206;6.888;2022-08-14T01:52:10;100394.38;;;25.81;43.19
10460;BME280;54412;51.206;6.888;2022-08-14T01:54:37;100395.41;;;25.49;43.95
10460;BME280;54412;51.206;6.888;2022-08-14T01:57:03;100387.84;;;25.67;43.40
10460;BME280;54412;51.206;6.888;2022-08-14T01:59:32;100396.50;;;25.85;43.58
10460;BME280;54412;51.206;6.888;2022-08-14T02:02:07;100388.94;;;25.58;44.03
10460;BME280;54412;51.206;6.888;2022-08-14T02:04:40;100394.28;;;25.66;44.17
10460;BME280;54412;51.206;6.888;2022-08-14T02:07:08;100370.69;;;25.60;44.02
10460;BME280;54412;51.206;6.888;2022-08-14T02:09:35;100376.72;;;25.70;43.94
10460;BME280;54412;51.206;6.888;2022-08-14T02:12:05;100375.00;;;25.69;44.00
10460;BME280;54412;51.206;6.888;2022-08-14T02:14:31;100372.50;;;25.45;44.52
10460;BME280;54412;51.206;6.888;2022-08-14T02:16:59;100378.06;;;25.36;45.22
10460;BME280;54412;51.206;6.888;2022-08-14T02:19:29;100371.25;;;25.56;44.51
10460;BME280;54412;51.206;6.888;2022-08-14T02:21:57;100363.91;;;25.42;44.93
10460;BME280;54412;51.206;6.888;2022-08-14T02:24:27;100368.06;;;25.52;44.63
10460;BME280;54412;51.206;6.888;2022-08-14T02:26:57;100370.13;;;25.42;44.87
10460;BME280;54412;51.206;6.888;2022-08-14T02:29:28;100378.91;;;25.44;44.90
10460;BME280;54412;51.206;6.888;2022-08-14T02:31:57;100368.34;;;25.57;44.80
10460;BME280;54412;51.206;6.888;2022-08-14T02:34:30;100374.13;;;25.54;44.92
10460;BME280;54412;51.206;6.888;2022-08-14T02:37:10;100376.13;;;25.22;45.79
10460;BME280;54412;51.206;6.888;2022-08-14T02:39:44;100372.13;;;25.48;45.08
10460;BME280;54412;51.206;6.888;2022-08-14T02:42:17;100385.25;;;25.51;44.81
10460;BME280;54412;51.206;6.888;2022-08-14T02:44:45;100381.09;;;25.41;45.13
10460;BME280;54412;51.206;6.888;2022-08-14T02:47:11;100382.28;;;25.38;45.51
10460;BME280;54412;51.206;6.888;2022-08-14T02:49:38;100381.63;;;25.36;45.63
10460;BME280;54412;51.206;6.888;2022-08-14T02:52:05;100382.31;;;25.30;46.16
10460;BME280;54412;51.206;6.888;2022-08-14T02:54:34;100384.31;;;25.36;45.77
10460;BME280;54412;51.206;6.888;2022-08-14T02:57:01;100381.56;;;25.14;46.18
10460;BME280;54412;51.206;6.888;2022-08-14T02:59:32;100381.16;;;25.25;46.00
10460;BME280;54412;51.206;6.888;2022-08-14T03:01:59;100383.38;;;25.21;46.10
10460;BME280;54412;51.206;6.888;2022-08-14T03:04:25;100383.94;;;25.17;46.17
10460;BME280;54412;51.206;6.888;2022-08-14T03:06:53;100378.53;;;25.17;46.29
10460;BME280;54412;51.206;6.888;2022-08-14T03:09:19;100380.78;;;24.97;46.92
10460;BME280;54412;51.206;6.888;2022-08-14T03:11:45;100376.41;;;24.96;46.82
10460;BME280;54412;51.206;6.888;2022-08-14T03:14:12;100374.31;;;25.14;46.38
10460;BME280;54412;51.206;6.888;2022-08-14T03:16:40;100370.91;;;24.81;47.29
10460;BME280;54412;51.206;6.888;2022-08-14T03:19:08;100372.84;;;24.96;46.88
10460;BME280;54412;51.206;6.888;2022-08-14T03:21:36;100370.16;;;24.96;47.16
10460;BME280;54412;51.206;6.888;2022-08-14T03:24:04;100369.66;;;25.00;46.79
10460;BME280;54412;51.206;6.888;2022-08-14T03:26:39;100363.09;;;24.95;47.04
10460;BME280;54412;51.206;6.888;2022-08-14T03:29:06;100366.66;;;24.95;46.99
10460;BME280;54412;51.206;6.888;2022-08-14T03:31:33;100366.47;;;24.89;47.39
10460;BME280;54412;51.206;6.888;2022-08-14T03:33:59;100367.03;;;24.76;47.87
10460;BME280;54412;51.206;6.888;2022-08-14T03:36:24;100365.38;;;24.75;47.62
10460;BME280;54412;51.206;6.888;2022-08-14T03:38:51;100366.66;;;24.87;47.49
10460;BME280;54412;51.206;6.888;2022-08-14T03:41:23;100367.22;;;24.74;47.98
10460;BME280;54412;51.206;6.888;2022-08-14T03:43:58;100358.28;;;24.74;47.77
10460;BME280;54412;51.206;6.888;2022-08-14T03:46:30;100366.84;;;24.86;47.65
10460;BME280;54412;51.206;6.888;2022-08-14T03:48:56;100358.69;;;24.94;47.25
10460;BME280;54412;51.206;6.888;2022-08-14T03:51:26;100365.47;;;24.90;47.56
10460;BME280;54412;51.206;6.888;2022-08-14T03:53:57;100358.59;;;24.79;47.88
10460;BME280;54412;51.206;6.888;2022-08-14T03:56:25;100358.75;;;24.86;47.53
10460;BME280;54412;51.206;6.888;2022-08-14T03:58:55;100352.56;;;24.61;48.27
10460;BME280;54412;51.206;6.888;2022-08-14T04:01:23;100358.78;;;24.69;47.98
10460;BME280;54412;51.206;6.888;2022-08-14T04:03:54;100353.06;;;24.64;48.10
10460;BME280;54412;51.206;6.888;2022-08-14T04:06:22;100352.38;;;24.70;48.06
10460;BME280;54412;51.206;6.888;2022-08-14T04:08:48;100363.00;;;24.56;48.69
10460;BME280;54412;51.206;6.888;2022-08-14T04:11:16;100366.38;;;24.58;48.41
10460;BME280;54412;51.206;6.888;2022-08-14T04:13:42;100356.13;;;24.45;48.69
10460;BME280;54412;51.206;6.888;2022-08-14T04:16:13;100353.59;;;24.52;48.81
10460;BME280;54412;51.206;6.888;2022-08-14T04:18:47;100346.81;;;24.64;48.33
10460;BME280;54412;51.206;6.888;2022-08-14T04:21:15;100347.00;;;24.70;48.13
10460;BME280;54412;51.206;6.888;2022-08-14T04:23:42;100350.88;;;24.68;48.13
10460;BME280;54412;51.206;6.888;2022-08-14T04:26:11;100351.53;;;24.78;47.83
10460;BME280;54412;51.206;6.888;2022-08-14T04:28:41;100347.00;;;24.70;47.89
10460;BME280;54412;51.206;6.888;2022-08-14T04:31:07;100351.19;;;24.65;48.25
10460;BME280;54412;51.206;6.888;2022-08-14T04:33:34;100351.41;;;24.55;48.45
10460;BME280;54412;51.206;6.888;2022-08-14T04:36:01;100348.88;;;24.46;48.71
10460;BME280;54412;51.206;6.888;2022-08-14T04:38:27;100345.97;;;24.63;48.37
10460;BME280;54412;51.206;6.888;2022-08-14T04:41:12;100348.34;;;24.58;48.55
10460;BME280;54412;51.206;6.888;2022-08-14T04:43:56;100343.31;;;24.55;48.61
10460;BME280;54412;51.206;6.888;2022-08-14T04:46:23;100344.63;;;24.67;48.43
10460;BME280;54412;51.206;6.888;2022-08-14T04:48:50;100335.69;;;24.67;48.61
10460;BME280;54412;51.206;6.888;2022-08-14T04:51:20;100341.28;;;24.49;48.90
10460;BME280;54412;51.206;6.888;2022-08-14T04:53:48;100336.41;;;24.45;49.08
10460;BME280;54412;51.206;6.888;2022-08-14T04:56:17;100334.38;;;24.47;49.02
10460;BME280;54412;51.206;6.888;2022-08-14T04:58:48;100333.34;;;24.64;48.69
10460;BME280;54412;51.206;6.888;2022-08-14T05:01:15;100332.97;;;24.67;48.70
10460;BME280;54412;51.206;6.888;2022-08-14T05:03:42;100342.28;;;24.56;48.80
10460;BME280;54412;51.206;6.888;2022-08-14T05:06:11;100333.88;;;24.51;49.33
10460;BME280;54412;51.206;6.888;2022-08-14T05:08:38;100334.75;;;24.44;49.27
10460;BME280;54412;51.206;6.888;2022-08-14T05:11:06;100337.44;;;24.52;49.38
10460;BME280;54412;51.206;6.888;2022-08-14T05:13:36;100341.78;;;24.53;49.46
10460;BME280;54412;51.206;6.888;2022-08-14T05:16:04;100339.59;;;24.56;49.34
10460;BME280;54412;51.206;6.888;2022-08-14T05:18:35;100336.22;;;24.62;49.26
10460;BME280;54412;51.206;6.888;2022-08-14T05:21:06;100331.00;;;24.61;49.23
10460;BME280;54412;51.206;6.888;2022-08-14T05:23:37;100332.13;;;24.66;49.46
10460;BME280;54412;51.206;6.888;2022-08-14T05:26:04;100334.34;;;24.71;49.47
10460;BME280;54412;51.206;6.888;2022-08-14T05:28:40;100322.38;;;24.73;49.53
10460;BME280;54412;51.206;6.888;2022-08-14T05:31:12;100324.38;;;24.79;49.20
10460;BME280;54412;51.206;6.888;2022-08-14T05:33:39;100319.25;;;24.93;48.68
10460;BME280;54412;51.206;6.888;2022-08-14T05:36:10;100319.16;;;25.17;48.02
10460;BME280;54412;51.206;6.888;2022-08-14T05:38:40;100317.03;;;24.96;48.55
10460;BME280;54412;51.206;6.888;2022-08-14T05:41:14;100307.50;;;24.86;48.77
10460;BME280;54412;51.206;6.888;2022-08-14T05:43:41;100312.88;;;24.86;48.97
10460;BME280;54412;51.206;6.888;2022-08-14T05:46:15;100303.44;;;24.90;48.99
10460;BME280;54412;51.206;6.888;2022-08-14T05:48:54;100306.88;;;25.06;48.18
10460;BME280;54412;51.206;6.888;2022-08-14T05:51:22;100301.81;;;25.11;48.22
10460;BME280;54412;51.206;6.888;2022-08-14T05:53:48;100304.25;;;25.21;48.25
10460;BME280;54412;51.206;6.888;2022-08-14T05:56:15;100298.47;;;25.01;48.59
10460;BME280;54412;51.206;6.888;2022-08-14T05:58:40;100299.22;;;25.18;48.31
10460;BME280;54412;51.206;6.888;2022-08-14T06:01:06;100298.19;;;25.19;47.96
10460;BME280;54412;51.206;6.888;2022-08-14T06:03:34;100301.66;;;25.05;48.78
10460;BME280;54412;51.206;6.888;2022-08-14T06:05:59;100292.78;;;25.19;48.34
10460;BME280;54412;51.206;6.888;2022-08-14T06:08:31;100293.19;;;25.38;47.90
10460;BME280;54412;51.206;6.888;2022-08-14T06:11:01;100291.50;;;25.15;48.40
10460;BME280;54412;51.206;6.888;2022-08-14T06:13:30;100290.75;;;25.21;48.40
10460;BME280;54412;51.206;6.888;2022-08-14T06:15:57;100288.78;;;25.45;47.83
10460;BME280;54412;51.206;6.888;2022-08-14T06:18:23;100287.66;;;25.32;48.30
10460;BME280;54412;51.206;6.888;2022-08-14T06:20:49;100296.53;;;25.18;48.48
10460;BME280;54412;51.206;6.888;2022-08-14T06:23:15;100292.19;;;25.39;48.00
10460;BME280;54412;51.206;6.888;2022-08-14T06:25:41;100290.75;;;25.74;47.19
10460;BME280;54412;51.206;6.888;2022-08-14T06:28:18;100299.50;;;25.53;47.96
10460;BME280;54412;51.206;6.888;2022-08-14T06:30:46;100293.53;;;25.43;48.02
10460;BME280;54412;51.206;6.888;2022-08-14T06:33:12;100296.63;;;25.55;48.08
10460;BME280;54412;51.206;6.888;2022-08-14T06:35:38;100294.34;;;25.66;47.65
10460;BME280;54412;51.206;6.888;2022-08-14T06:38:05;100294.34;;;25.66;47.57
10460;BME280;54412;51.206;6.888;2022-08-14T06:40:36;100301.06;;;25.70;47.37
10460;BME280;54412;51.206;6.888;2022-08-14T06:43:08;100295.00;;;25.68;47.73
10460;BME280;54412;51.206;6.888;2022-08-14T06:45:37;100296.72;;;25.84;47.32
10460;BME280;54412;51.206;6.888;2022-08-14T06:48:14;100293.66;;;25.87;47.34
10460;BME280;54412;51.206;6.888;2022-08-14T06:50:42;100294.50;;;25.88;47.18
10460;BME280;54412;51.206;6.888;2022-08-14T06:53:09;100287.63;;;25.85;47.09
10460;BME280;54412;51.206;6.888;2022-08-14T06:55:35;100281.81;;;26.25;46.75
10460;BME280;54412;51.206;6.888;2022-08-14T06:58:00;100276.41;;;26.11;46.85
10460;BME280;54412;51.206;6.888;2022-08-14T07:00:28;100276.66;;;26.01;47.10
10460;BME280;54412;51.206;6.888;2022-08-14T07:02:54;100284.34;;;25.90;47.13
10460;BME280;54412;51.206;6.888;2022-08-14T07:05:39;100275.63;;;26.02;46.95
10460;BME280;54412;51.206;6.888;2022-08-14T07:08:15;100276.66;;;26.16;46.82
10460;BME280;54412;51.206;6.888;2022-08-14T07:10:45;100272.72;;;26.41;45.87
10460;BME280;54412;51.206;6.888;2022-08-14T07:13:12;100267.84;;;26.65;45.24
10460;BME280;54412;51.206;6.888;2022-08-14T07:15:42;100271.53;;;26.64;45.59
10460;BME280;54412;51.206;6.888;2022-08-14T07:18:10;100262.50;;;26.57;45.99
10460;BME280;54412;51.206;6.888;2022-08-14T07:20:39;100259.06;;;26.78;45.25
10460;BME280;54412;51.206;6.888;2022-08-14T07:23:07;100262.38;;;27.09;44.80
10460;BME280;54412;51.206;6.888;2022-08-14T07:25:35;100261.25;;;27.04;44.55
10460;BME280;54412;51.206;6.888;2022-08-14T07:28:29;100263.81;;;26.91;44.53
10460;BME280;54412;51.206;6.888;2022-08-14T07:30:57;100263.41;;;26.94;44.79
10460;BME280;54412;51.206;6.888;2022-08-14T07:33:30;100258.41;;;26.76;44.90
10460;BME280;54412;51.206;6.888;2022-08-14T07:36:04;100253.25;;;26.96;44.78
10460;BME280;54412;51.206;6.888;2022-08-14T07:38:30;100256.53;;;26.91;44.81
10460;BME280;54412;51.206;6.888;2022-08-14T07:40:56;100260.41;;;27.03;44.55
10460;BME280;54412;51.206;6.888;2022-08-14T07:43:24;100255.00;;;27.03;44.15
10460;BME280;54412;51.206;6.888;2022-08-14T07:45:50;100252.28;;;27.03;43.95
10460;BME280;54412;51.206;6.888;2022-08-14T07:48:16;100248.94;;;27.22;44.41
10460;BME280;54412;51.206;6.888;2022-08-14T07:50:42;100251.25;;;27.40;43.59
10460;BME280;54412;51.206;6.888;2022-08-14T07:53:08;100248.28;;;27.35;43.58
10460;BME280;54412;51.206;6.888;2022-08-14T07:55:35;100244.22;;;27.45;43.40
10460;BME280;54412;51.206;6.888;2022-08-14T07:58:01;100246.75;;;27.47;43.10
10460;BME280;54412;51.206;6.888;2022-08-14T08:00:27;100242.31;;;27.67;42.61
10460;BME280;54412;51.206;6.888;2022-08-14T08:02:54;100236.00;;;27.81;42.38
10460;BME280;54412;51.206;6.888;2022-08-14T08:05:23;100232.78;;;27.71;42.89
10460;BME280;54412;51.206;6.888;2022-08-14T08:07:51;100229.19;;;27.92;42.89
10460;BME280;54412;51.206;6.888;2022-08-14T08:10:21;100237.25;;;27.85;42.29
10460;BME280;54412;51.206;6.888;2022-08-14T08:13:01;100250.88;;;27.92;42.12
10460;BME280;54412;51.206;6.888;2022-08-14T08:15:32;100245.31;;;28.00;42.33
10460;BME280;54412;51.206;6.888;2022-08-14T08:17:59;100238.34;;;28.12;42.00
10460;BME280;54412;51.206;6.888;2022-08-14T08:20:32;100237.06;;;28.08;42.31
10460;BME280;54412;51.206;6.888;2022-08-14T08:22:59;100236.75;;;28.24;42.00
10460;BME280;54412;51.206;6.888;2022-08-14T08:25:28;100243.88;;;28.31;41.56
10460;BME280;54412;51.206;6.888;2022-08-14T08:27:59;100236.06;;;28.49;41.01
10460;BME280;54412;51.206;6.888;2022-08-14T08:30:27;100237.28;;;28.47;41.47
10460;BME280;54412;51.206;6.888;2022-08-14T08:32:56;100237.75;;;28.57;40.87
10460;BME280;54412;51.206;6.888;2022-08-14T08:35:25;100229.75;;;28.90;39.86
10460;BME280;54412;51.206;6.888;2022-08-14T08:37:53;100248.16;;;29.01;39.84
10460;BME280;54412;51.206;6.888;2022-08-14T08:40:29;100240.84;;;28.95;40.10
10460;BME280;54412;51.206;6.888;2022-08-14T08:42:56;100233.09;;;28.92;40.20
10460;BME280;54412;51.206;6.888;2022-08-14T08:45:22;100235.94;;;29.18;39.82
10460;BME280;54412;51.206;6.888;2022-08-14T08:47:49;100232.16;;;29.25;39.52
10460;BME280;54412;51.206;6.888;2022-08-14T08:50:22;100229.88;;;29.22;39.34
10460;BME280;54412;51.206;6.888;2022-08-14T08:52:53;100229.50;;;29.64;39.52
10460;BME280;54412;51.206;6.888;2022-08-14T08:55:40;100229.50;;;29.64;38.29
10460;BME280;54412;51.206;6.888;2022-08-14T08:58:24;100218.25;;;29.80;39.07
10460;BME280;54412;51.206;6.888;2022-08-14T09:00:53;100220.09;;;29.87;38.94
10460;BME280;54412;51.206;6.888;2022-08-14T09:03:23;100215.91;;;29.91;38.29
10460;BME280;54412;51.206;6.888;2022-08-14T09:05:56;100216.91;;;30.22;37.27
10460;BME280;54412;51.206;6.888;2022-08-14T09:08:26;100215.88;;;30.30;37.52
10460;BME280;54412;51.206;6.888;2022-08-14T09:10:54;100205.75;;;30.50;37.32
10460;BME280;54412;51.206;6.888;2022-08-14T09:13:22;100213.03;;;30.69;36.44
10460;BME280;54412;51.206;6.888;2022-08-14T09:15:52;100217.63;;;30.62;36.25
10460;BME280;54412;51.206;6.888;2022-08-14T09:18:21;100216.31;;;30.77;36.25
10460;BME280;54412;51.206;6.888;2022-08-14T09:20:54;100217.72;;;30.93;35.50
10460;BME280;54412;51.206;6.888;2022-08-14T09:23:21;100210.91;;;31.09;35.34
10460;BME280;54412;51.206;6.888;2022-08-14T09:25:49;100215.16;;;31.05;35.91
10460;BME280;54412;51.206;6.888;2022-08-14T09:28:18;100208.75;;;31.24;35.60
10460;BME280;54412;51.206;6.888;2022-08-14T09:30:51;100205.84;;;31.19;35.87
10460;BME280;54412;51.206;6.888;2022-08-14T09:33:33;100201.25;;;31.13;34.81
10460;BME280;54412;51.206;6.888;2022-08-14T09:39:24;100190.66;;;31.36;34.38
10460;BME280;54412;51.206;6.888;2022-08-14T09:45:16;100183.47;;;31.41;33.38
10460;BME280;54412;51.206;6.888;2022-08-14T09:47:52;100179.88;;;31.47;33.67
10460;BME280;54412;51.206;6.888;2022-08-14T09:52:57;100171.47;;;31.98;33.41
10460;BME280;54412;51.206;6.888;2022-08-14T09:55:25;100163.28;;;31.98;32.83
10460;BME280;54412;51.206;6.888;2022-08-14T09:58:06;100153.91;;;31.88;32.86
10460;BME280;54412;51.206;6.888;2022-08-14T10:00:49;100150.44;;;31.99;32.17
10460;BME280;54412;51.206;6.888;2022-08-14T10:03:28;100150.00;;;32.20;31.43
10460;BME280;54412;51.206;6.888;2022-08-14T10:06:12;100147.44;;;32.25;31.88
10460;BME280;54412;51.206;6.888;2022-08-14T10:08:48;100149.31;;;32.24;31.71
10460;BME280;54412;51.206;6.888;2022-08-14T10:13:45;100155.75;;;32.30;31.76
10460;BME280;54412;51.206;6.888;2022-08-14T10:16:12;100156.91;;;32.04;31.21
10460;BME280;54412;51.206;6.888;2022-08-14T10:18:38;100145.47;;;32.14;31.31
10460;BME280;54412;51.206;6.888;2022-08-14T10:21:08;100141.38;;;32.23;31.70
10460;BME280;54412;51.206;6.888;2022-08-14T10:23:43;100140.84;;;32.14;30.62
10460;BME280;54412;51.206;6.888;2022-08-14T10:26:15;100152.00;;;31.88;30.74
10460;BME280;54412;51.206;6.888;2022-08-14T10:28:49;100135.88;;;31.87;30.61
10460;BME280;54412;51.206;6.888;2022-08-14T10:31:25;100138.22;;;31.83;30.82
10460;BME280;54412;51.206;6.888;2022-08-14T10:34:05;100126.31;;;31.77;31.17
10460;BME280;54412;51.206;6.888;2022-08-14T10:36:39;100125.38;;;32.08;30.96
10460;BME280;54412;51.206;6.888;2022-08-14T10:39:21;100114.44;;;32.44;30.99
10460;BME280;54412;51.206;6.888;2022-08-14T10:41:48;100111.56;;;32.39;30.96
10460;BME280;54412;51.206;6.888;2022-08-14T10:44:33;100113.63;;;32.44;29.56
10460;BME280;54412;51.206;6.888;2022-08-14T10:47:01;100106.63;;;32.48;29.95
10460;BME280;54412;51.206;6.888;2022-08-14T10:49:37;100100.53;;;32.16;29.18
10460;BME280;54412;51.206;6.888;2022-08-14T10:52:10;100105.84;;;32.11;29.41
10460;BME280;54412;51.206;6.888;2022-08-14T10:54:45;100100.31;;;32.00;29.36
10460;BME280;54412;51.206;6.888;2022-08-14T11:00:01;100106.97;;;32.22;29.43
10460;BME280;54412;51.206;6.888;2022-08-14T11:02:37;100108.38;;;32.24;29.09
10460;BME280;54412;51.206;6.888;2022-08-14T11:05:14;100101.00;;;32.61;28.97
10460;BME280;54412;51.206;6.888;2022-08-14T11:07:56;100089.09;;;32.55;29.01
10460;BME280;54412;51.206;6.888;2022-08-14T11:13:03;100084.19;;;32.46;28.87
10460;BME280;54412;51.206;6.888;2022-08-14T11:15:30;100079.75;;;32.63;29.13
10460;BME280;54412;51.206;6.888;2022-08-14T11:17:55;100079.44;;;32.23;29.04
10460;BME280;54412;51.206;6.888;2022-08-14T11:20:27;100084.94;;;32.35;29.64
10460;BME280;54412;51.206;6.888;2022-08-14T11:22:58;100079.03;;;32.67;29.37
10460;BME280;54412;51.206;6.888;2022-08-14T11:25:28;100080.66;;;32.45;29.59
10460;BME280;54412;51.206;6.888;2022-08-14T11:27:58;100080.44;;;32.40;28.87
10460;BME280;54412;51.206;6.888;2022-08-14T11:30:27;100082.78;;;32.25;28.93
10460;BME280;54412;51.206;6.888;2022-08-14T11:32:54;100076.97;;;32.33;29.25
10460;BME280;54412;51.206;6.888;2022-08-14T11:35:23;100072.97;;;32.54;28.99
10460;BME280;54412;51.206;6.888;2022-08-14T11:38:02;100073.56;;;32.56;27.95
10460;BME280;54412;51.206;6.888;2022-08-14T11:40:34;100075.75;;;32.77;27.28
10460;BME280;54412;51.206;6.888;2022-08-14T11:43:04;100078.44;;;33.07;27.55
10460;BME280;54412;51.206;6.888;2022-08-14T11:45:35;100069.88;;;33.03;27.63
10460;BME280;54412;51.206;6.888;2022-08-14T11:48:14;100066.84;;;32.70;27.96
10460;BME280;54412;51.206;6.888;2022-08-14T11:50:41;100049.84;;;33.21;28.23
10460;BME280;54412;51.206;6.888;2022-08-14T11:53:25;100050.56;;;33.05;27.42
10460;BME280;54412;51.206;6.888;2022-08-14T11:56:03;100062.22;;;33.35;27.34
10460;BME280;54412;51.206;6.888;2022-08-14T11:58:34;100044.13;;;33.34;27.39
10460;BME280;54412;51.206;6.888;2022-08-14T12:01:06;100044.31;;;32.86;27.95
10460;BME280;54412;51.206;6.888;2022-08-14T12:03:36;100044.69;;;32.30;28.24
10460;BME280;54412;51.206;6.888;2022-08-14T12:06:11;100038.56;;;32.76;28.17
10460;BME280;54412;51.206;6.888;2022-08-14T12:08:38;100032.59;;;33.09;27.65
10460;BME280;54412;51.206;6.888;2022-08-14T12:11:09;100033.91;;;33.41;27.27
10460;BME280;54412;51.206;6.888;2022-08-14T12:13:38;100028.22;;;33.65;26.40
10460;BME280;54412;51.206;6.888;2022-08-14T12:16:07;100012.88;;;33.64;26.84
10460;BME280;54412;51.206;6.888;2022-08-14T12:18:40;100021.03;;;33.99;26.49
10460;BME280;54412;51.206;6.888;2022-08-14T12:23:40;100024.41;;;33.20;26.47
10460;BME280;54412;51.206;6.888;2022-08-14T12:26:12;100023.91;;;32.89;26.55
10460;BME280;54412;51.206;6.888;2022-08-14T12:28:38;100027.97;;;32.56;27.50
10460;BME280;54412;51.206;6.888;2022-08-14T12:31:20;100010.41;;;32.05;28.58
10460;BME280;54412;51.206;6.888;2022-08-14T12:34:01;100010.78;;;32.08;28.47
10460;BME280;54412;51.206;6.888;2022-08-14T12:36:28;99993.19;;;31.86;28.14
10460;BME280;54412;51.206;6.888;2022-08-14T12:38:59;99993.97;;;32.11;28.17
10460;BME280;54412;51.206;6.888;2022-08-14T12:41:28;99980.13;;;32.65;28.21
10460;BME280;54412;51.206;6.888;2022-08-14T12:44:00;99965.47;;;33.13;28.36
10460;BME280;54412;51.206;6.888;2022-08-14T12:46:34;99968.03;;;33.65;28.02
10460;BME280;54412;51.206;6.888;2022-08-14T12:49:12;99964.13;;;34.01;26.96
10460;BME280;54412;51.206;6.888;2022-08-14T12:51:39;99964.13;;;33.61;26.58
10460;BME280;54412;51.206;6.888;2022-08-14T12:54:18;99958.31;;;33.86;27.29
10460;BME280;54412;51.206;6.888;2022-08-14T12:56:46;99946.25;;;34.10;27.56
10460;BME280;54412;51.206;6.888;2022-08-14T12:59:13;99946.72;;;34.35;26.97
10460;BME280;54412;51.206;6.888;2022-08-14T13:01:41;99938.41;;;34.30;26.91
10460;BME280;54412;51.206;6.888;2022-08-14T13:04:12;99941.63;;;34.27;27.48
10460;BME280;54412;51.206;6.888;2022-08-14T13:06:44;99933.16;;;34.12;24.76
10460;BME280;54412;51.206;6.888;2022-08-14T13:09:13;99935.75;;;33.51;25.77
10460;BME280;54412;51.206;6.888;2022-08-14T13:11:51;99934.03;;;33.61;25.50
10460;BME280;54412;51.206;6.888;2022-08-14T13:14:22;99928.38;;;33.79;25.73
10460;BME280;54412;51.206;6.888;2022-08-14T13:16:53;99923.59;;;33.58;25.69
10460;BME280;54412;51.206;6.888;2022-08-14T13:19:23;99925.75;;;33.56;25.36
10460;BME280;54412;51.206;6.888;2022-08-14T13:21:52;99927.13;;;33.59;25.31
10460;BME280;54412;51.206;6.888;2022-08-14T13:24:22;99923.41;;;33.76;25.53